createdAt,value
2022-10-15T00:01:07.428Z,19.90
2022-10-15T00:02:09.577Z,20.20
2022-10-15T00:03:12.850Z,19.17
2022-10-15T00:04:14.929Z,23.02
2022-10-15T00:05:18.008Z,21.55
2022-10-15T00:06:21.550Z,20.83
2022-10-15T00:07:24.961Z,21.20
2022-10-15T00:08:27.228Z,20.00
2022-10-15T00:09:31.682Z,20.60
2022-10-15T00:10:34.718Z,21.65
2022-10-15T00:11:37.819Z,21.63
2022-10-15T00:12:40.802Z,21.63
2022-10-15T00:13:45.022Z,22.73
2022-10-15T00:14:47.251Z,22.27
2022-10-15T00:15:50.331Z,20.75
2022-10-15T00:16:52.385Z,24.98
2022-10-15T00:17:55.485Z,24.80
2022-10-15T00:18:59.135Z,22.77
2022-10-15T00:20:02.416Z,20.95
2022-10-15T00:21:07.757Z,22.90
2022-10-15T00:22:10.817Z,24.40
2022-10-15T00:23:12.860Z,24.55
2022-10-15T00:24:16.046Z,25.80
2022-10-15T00:25:19.686Z,25.63
2022-10-15T00:26:24.714Z,23.73
2022-10-15T00:27:26.826Z,23.40
2022-10-15T00:28:33.394Z,27.77
2022-10-15T00:29:37.520Z,23.58
2022-10-15T00:30:39.656Z,23.67
2022-10-15T00:31:42.916Z,25.27
2022-10-15T00:32:45.000Z,27.95
2022-10-15T00:33:50.159Z,24.42
2022-10-15T00:34:52.303Z,27.30
2022-10-15T00:36:00.565Z,26.08
2022-10-15T00:37:04.502Z,29.27
2022-10-15T00:38:07.534Z,24.77
2022-10-15T00:39:10.818Z,26.27
2022-10-15T00:40:15.632Z,25.80
2022-10-15T00:41:22.224Z,25.08
2022-10-15T00:42:25.734Z,25.77
2022-10-15T00:43:42.898Z,28.33
2022-10-15T00:44:55.474Z,32.08
2022-10-15T00:45:57.629Z,31.65
2022-10-15T00:47:05.349Z,28.73
2022-10-15T00:48:09.480Z,28.80
2022-10-15T00:49:18.062Z,30.35
2022-10-15T00:50:24.758Z,24.55
2022-10-15T00:51:32.217Z,26.27
2022-10-15T00:52:43.504Z,30.05
2022-10-15T00:53:46.434Z,30.38
2022-10-15T00:54:54.043Z,31.13
2022-10-15T00:55:56.841Z,30.08
2022-10-15T00:57:02.019Z,30.23
2022-10-15T00:58:07.102Z,31.55
2022-10-15T00:59:12.816Z,28.17
2022-10-15T01:00:16.637Z,31.85
2022-10-15T01:01:19.824Z,31.83
2022-10-15T01:02:22.380Z,31.83
2022-10-15T01:03:26.491Z,29.70
2022-10-15T01:04:30.675Z,34.03
2022-10-15T01:05:35.833Z,35.30
2022-10-15T01:06:39.253Z,31.25
2022-10-15T01:07:42.325Z,36.08
2022-10-15T01:08:45.129Z,37.92
2022-10-15T01:09:48.634Z,35.78
2022-10-15T01:11:07.203Z,33.75
2022-10-15T01:12:20.120Z,31.40
2022-10-15T01:13:29.224Z,29.90
2022-10-15T01:14:39.797Z,35.97
2022-10-15T01:15:48.883Z,31.92
2022-10-15T01:16:56.054Z,34.17
2022-10-15T01:18:04.675Z,34.95
2022-10-15T01:19:24.750Z,34.17
2022-10-15T01:20:49.066Z,32.22
2022-10-15T01:21:58.509Z,30.55
2022-10-15T01:23:22.411Z,31.88
2022-10-15T01:24:46.875Z,32.08
2022-10-15T01:25:56.269Z,37.88
2022-10-15T01:27:16.115Z,34.25
2022-10-15T01:28:38.469Z,33.90
2022-10-15T01:30:20.969Z,32.40
2022-10-15T01:31:38.819Z,31.42
2022-10-15T01:32:48.145Z,33.28
2022-10-15T01:33:58.157Z,36.63
2022-10-15T01:35:09.792Z,40.78
2022-10-15T01:36:20.051Z,35.63
2022-10-15T01:37:26.768Z,33.72
2022-10-15T01:38:40.327Z,34.35
2022-10-15T01:39:47.137Z,36.17
2022-10-15T01:40:55.254Z,35.40
2022-10-15T01:42:03.150Z,36.20
2022-10-15T01:43:12.024Z,34.33
2022-10-15T01:44:48.607Z,33.53
2022-10-15T01:46:17.448Z,36.58
2022-10-15T01:47:42.517Z,36.13
2022-10-15T01:48:45.431Z,34.15
2022-10-15T01:49:50.868Z,36.72
2022-10-15T01:50:57.873Z,34.95
2022-10-15T01:52:06.041Z,37.50
2022-10-15T01:53:09.153Z,36.80
2022-10-15T01:54:18.622Z,35.28
2022-10-15T01:55:22.750Z,34.53
2022-10-15T01:56:29.406Z,37.33
2022-10-15T01:57:33.377Z,37.28
2022-10-15T01:58:39.584Z,37.85
2022-10-15T01:59:43.721Z,33.10
2022-10-15T02:00:47.468Z,37.60
2022-10-15T02:01:51.015Z,36.30
2022-10-15T02:02:54.054Z,39.35
2022-10-15T02:03:56.268Z,37.20
2022-10-15T02:04:59.334Z,40.33
2022-10-15T02:06:05.922Z,39.53
2022-10-15T02:07:14.384Z,41.08
2022-10-15T02:08:28.627Z,38.33
2022-10-15T02:09:43.271Z,36.22
2022-10-15T02:10:54.057Z,35.33
2022-10-15T02:12:06.788Z,35.15
2022-10-15T02:13:13.116Z,37.72
2022-10-15T02:14:23.204Z,36.00
2022-10-15T02:15:32.775Z,40.38
2022-10-15T02:16:42.155Z,37.88
2022-10-15T02:17:52.581Z,40.70
2022-10-15T02:19:02.202Z,36.90
2022-10-15T02:20:10.450Z,37.95
2022-10-15T02:21:17.765Z,40.00
2022-10-15T02:22:26.516Z,40.25
2022-10-15T02:23:46.697Z,37.45
2022-10-15T02:24:55.546Z,41.67
2022-10-15T02:26:00.650Z,37.13
2022-10-15T02:27:04.682Z,39.17
2022-10-15T02:28:11.260Z,39.97
2022-10-15T02:29:19.189Z,42.78
2022-10-15T02:30:21.661Z,40.28
2022-10-15T02:31:26.055Z,39.47
2022-10-15T02:32:29.380Z,42.17
2022-10-15T02:33:35.929Z,39.15
2022-10-15T02:34:39.502Z,38.58
2022-10-15T02:35:44.455Z,40.90
2022-10-15T02:36:47.722Z,38.50
2022-10-15T02:37:54.236Z,39.78
2022-10-15T02:38:58.808Z,38.80
2022-10-15T02:40:01.965Z,37.95
2022-10-15T02:41:07.185Z,45.60
2022-10-15T02:42:10.447Z,39.40
2022-10-15T02:43:15.467Z,41.45
2022-10-15T02:44:18.548Z,42.75
2022-10-15T02:45:20.938Z,42.58
2022-10-15T02:46:24.134Z,42.55
2022-10-15T02:47:26.175Z,41.40
2022-10-15T02:48:29.882Z,42.83
2022-10-15T02:49:33.346Z,42.08
2022-10-15T02:50:36.504Z,43.72
2022-10-15T02:51:38.769Z,43.25
2022-10-15T02:52:41.831Z,41.58
2022-10-15T02:53:43.882Z,41.97
2022-10-15T02:54:46.973Z,43.50
2022-10-15T02:55:49.075Z,44.88
2022-10-15T02:56:52.971Z,40.88
2022-10-15T02:57:56.317Z,44.92
2022-10-15T02:58:59.372Z,44.80
2022-10-15T03:00:01.436Z,43.20
2022-10-15T03:01:04.891Z,40.80
2022-10-15T03:02:06.981Z,39.75
2022-10-15T03:03:10.093Z,41.65
2022-10-15T03:04:12.484Z,41.90
2022-10-15T03:05:17.654Z,41.13
2022-10-15T03:06:20.169Z,41.42
2022-10-15T03:07:24.477Z,41.10
2022-10-15T03:08:26.806Z,37.28
2022-10-15T03:09:29.892Z,40.08
2022-10-15T03:10:31.983Z,44.03
2022-10-15T03:11:36.138Z,46.42
2022-10-15T03:12:38.189Z,47.13
2022-10-15T03:13:42.097Z,43.40
2022-10-15T03:14:44.121Z,42.63
2022-10-15T03:15:47.166Z,45.95
2022-10-15T03:16:50.589Z,46.67
2022-10-15T03:17:53.713Z,48.08
2022-10-15T03:18:55.831Z,47.45
2022-10-15T03:19:59.777Z,42.65
2022-10-15T03:21:03.749Z,43.95
2022-10-15T03:22:07.079Z,43.80
2022-10-15T03:23:18.127Z,41.53
2022-10-15T03:24:21.383Z,40.42
2022-10-15T03:25:23.762Z,45.97
2022-10-15T03:26:35.365Z,41.65
2022-10-15T03:27:37.410Z,39.28
2022-10-15T03:28:49.058Z,37.55
2022-10-15T03:30:05.070Z,42.78
2022-10-15T03:31:09.623Z,41.03
2022-10-15T03:32:11.880Z,39.58
2022-10-15T03:33:15.668Z,42.85
2022-10-15T03:34:18.083Z,41.72
2022-10-15T03:35:23.563Z,39.58
2022-10-15T03:36:28.059Z,40.70
2022-10-15T03:37:30.392Z,44.92
2022-10-15T03:38:33.612Z,41.88
2022-10-15T03:39:39.258Z,41.95
2022-10-15T03:40:46.399Z,39.15
2022-10-15T03:41:56.233Z,42.97
2022-10-15T03:43:06.840Z,39.67
2022-10-15T03:44:11.175Z,42.58
2022-10-15T03:45:19.037Z,43.40
2022-10-15T03:46:24.981Z,40.38
2022-10-15T03:47:28.912Z,41.28
2022-10-15T03:48:32.435Z,38.53
2022-10-15T03:49:35.489Z,42.63
2022-10-15T03:50:37.961Z,41.42
2022-10-15T03:51:42.443Z,40.85
2022-10-15T03:52:48.101Z,41.20
2022-10-15T03:53:50.278Z,41.83
2022-10-15T03:54:53.355Z,43.38
2022-10-15T03:55:56.080Z,45.28
2022-10-15T03:57:00.100Z,40.17
2022-10-15T03:58:07.083Z,40.45
2022-10-15T03:59:11.333Z,39.28
2022-10-15T04:00:14.687Z,42.53
2022-10-15T04:01:19.468Z,41.97
2022-10-15T04:02:21.983Z,40.60
2022-10-15T04:03:25.264Z,44.10
2022-10-15T04:04:28.028Z,43.05
2022-10-15T04:05:31.399Z,43.97
2022-10-15T04:06:41.750Z,44.45
2022-10-15T04:07:49.125Z,42.40
2022-10-15T04:08:54.954Z,48.28
2022-10-15T04:10:00.772Z,43.80
2022-10-15T04:11:09.964Z,45.22
2022-10-15T04:12:13.030Z,47.63
2022-10-15T04:13:15.145Z,51.53
2022-10-15T04:14:20.207Z,46.10
2022-10-15T04:15:22.437Z,45.38
2022-10-15T04:16:30.858Z,49.50
2022-10-15T04:17:32.948Z,45.92
2022-10-15T04:18:36.341Z,41.38
2022-10-15T04:19:38.584Z,46.53
2022-10-15T04:20:42.746Z,40.80
2022-10-15T04:21:51.570Z,44.33
2022-10-15T04:23:06.397Z,47.40
2022-10-15T04:24:09.840Z,45.90
2022-10-15T04:25:16.627Z,47.58
2022-10-15T04:26:18.914Z,47.58
2022-10-15T04:27:22.015Z,50.30
2022-10-15T04:28:24.169Z,47.60
2022-10-15T04:29:27.579Z,45.85
2022-10-15T04:30:29.653Z,48.38
2022-10-15T04:31:37.554Z,45.20
2022-10-15T04:32:39.902Z,45.42
2022-10-15T04:33:42.986Z,50.35
2022-10-15T04:34:46.498Z,52.40
2022-10-15T04:35:59.826Z,46.97
2022-10-15T04:37:18.945Z,51.38
2022-10-15T04:38:22.008Z,51.17
2022-10-15T04:39:36.674Z,54.08
2022-10-15T04:40:39.350Z,52.35
2022-10-15T04:41:42.809Z,53.42
2022-10-15T04:42:48.455Z,59.22
2022-10-15T04:43:52.519Z,57.72
2022-10-15T04:44:54.578Z,57.70
2022-10-15T04:45:59.102Z,57.40
2022-10-15T04:47:03.389Z,59.38
2022-10-15T04:48:13.119Z,53.92
2022-10-15T04:49:16.300Z,55.95
2022-10-15T04:50:18.380Z,52.95
2022-10-15T04:51:39.870Z,58.85
2022-10-15T04:52:52.042Z,52.13
2022-10-15T04:53:56.246Z,52.40
2022-10-15T04:54:58.940Z,56.35
2022-10-15T04:56:03.664Z,61.92
2022-10-15T04:57:06.393Z,56.35
2022-10-15T04:58:10.908Z,60.78
2022-10-15T04:59:13.136Z,68.32
2022-10-15T05:00:36.019Z,60.33
2022-10-15T05:01:56.517Z,58.63
2022-10-15T05:02:59.859Z,56.67
2022-10-15T05:04:14.772Z,55.75
2022-10-15T05:05:16.820Z,55.33
2022-10-15T05:06:28.894Z,57.78
2022-10-15T05:07:37.771Z,58.33
2022-10-15T05:08:43.470Z,56.33
2022-10-15T05:09:54.672Z,71.03
2022-10-15T05:11:00.810Z,64.88
2022-10-15T05:12:03.916Z,60.15
2022-10-15T05:13:06.020Z,58.25
2022-10-15T05:14:11.723Z,60.22
2022-10-15T05:15:13.960Z,58.42
2022-10-15T05:16:19.833Z,64.50
2022-10-15T05:17:22.201Z,61.10
2022-10-15T05:18:25.554Z,60.33
2022-10-15T05:19:27.947Z,63.28
2022-10-15T05:20:31.008Z,64.25
2022-10-15T05:21:35.468Z,66.68
2022-10-15T05:22:40.636Z,58.97
2022-10-15T05:23:45.659Z,68.03
2022-10-15T05:24:58.749Z,66.00
2022-10-15T05:26:06.485Z,64.30
2022-10-15T05:27:08.723Z,62.85
2022-10-15T05:28:12.521Z,65.72
2022-10-15T05:29:14.547Z,67.82
2022-10-15T05:30:17.855Z,64.85
2022-10-15T05:31:27.136Z,62.20
2022-10-15T05:32:38.716Z,62.22
2022-10-15T05:33:45.596Z,64.22
2022-10-15T05:34:48.695Z,63.65
2022-10-15T05:35:51.837Z,68.10
2022-10-15T05:36:57.492Z,65.25
2022-10-15T05:37:59.570Z,63.08
2022-10-15T05:39:07.842Z,66.82
2022-10-15T05:40:18.234Z,63.97
2022-10-15T05:41:36.156Z,69.85
2022-10-15T05:42:38.332Z,64.90
2022-10-15T05:43:42.885Z,66.78
2022-10-15T05:44:57.420Z,67.20
2022-10-15T05:46:00.729Z,64.93
2022-10-15T05:47:02.797Z,65.75
2022-10-15T05:48:06.532Z,69.70
2022-10-15T05:49:09.480Z,65.97
2022-10-15T05:50:23.539Z,62.97
2022-10-15T05:51:29.575Z,64.30
2022-10-15T05:52:38.398Z,59.65
2022-10-15T05:53:56.586Z,59.00
2022-10-15T05:55:00.254Z,57.10
2022-10-15T05:56:03.322Z,62.97
2022-10-15T05:57:06.464Z,59.97
2022-10-15T05:58:09.517Z,68.90
2022-10-15T05:59:11.582Z,56.63
2022-10-15T06:00:15.885Z,56.70
2022-10-15T06:01:26.436Z,57.75
2022-10-15T06:02:29.202Z,60.80
2022-10-15T06:03:32.937Z,63.80
2022-10-15T06:04:35.942Z,70.97
2022-10-15T06:05:39.137Z,64.15
2022-10-15T06:06:41.190Z,63.13
2022-10-15T06:07:44.247Z,61.03
2022-10-15T06:08:47.152Z,65.32
2022-10-15T06:09:50.344Z,63.53
2022-10-15T06:10:55.929Z,68.93
2022-10-15T06:11:58.989Z,59.53
2022-10-15T06:13:01.083Z,67.97
2022-10-15T06:14:04.122Z,64.05
2022-10-15T06:15:07.142Z,66.40
2022-10-15T06:16:10.908Z,65.95
2022-10-15T06:17:13.019Z,71.93
2022-10-15T06:18:18.457Z,67.05
2022-10-15T06:19:20.844Z,68.40
2022-10-15T06:20:23.969Z,70.10
2022-10-15T06:21:26.018Z,72.20
2022-10-15T06:22:31.945Z,67.07
2022-10-15T06:23:35.619Z,67.70
2022-10-15T06:24:37.670Z,73.03
2022-10-15T06:25:43.866Z,69.00
2022-10-15T06:26:47.274Z,70.18
2022-10-15T06:27:50.303Z,72.60
2022-10-15T06:28:52.394Z,66.50
2022-10-15T06:29:55.479Z,70.60
2022-10-15T06:30:58.864Z,71.38
2022-10-15T06:32:02.952Z,72.72
2022-10-15T06:33:05.156Z,74.28
2022-10-15T06:34:08.217Z,73.50
2022-10-15T06:35:10.366Z,71.47
2022-10-15T06:36:14.685Z,69.32
2022-10-15T06:37:16.734Z,66.55
2022-10-15T06:38:19.832Z,72.68
2022-10-15T06:39:21.924Z,71.95
2022-10-15T06:40:25.026Z,74.25
2022-10-15T06:41:27.153Z,70.95
2022-10-15T06:42:31.553Z,71.05
2022-10-15T06:43:35.232Z,69.60
2022-10-15T06:44:38.681Z,73.25
2022-10-15T06:45:42.586Z,67.32
2022-10-15T06:46:52.886Z,70.28
2022-10-15T06:47:55.009Z,69.63
2022-10-15T06:48:58.124Z,69.40
2022-10-15T06:50:00.618Z,68.90
2022-10-15T06:51:04.906Z,64.15
2022-10-15T06:52:07.488Z,73.43
2022-10-15T06:53:10.618Z,66.63
2022-10-15T06:54:12.727Z,66.00
2022-10-15T06:55:15.886Z,69.65
2022-10-15T06:56:18.078Z,72.88
2022-10-15T06:57:21.512Z,65.57
2022-10-15T06:58:25.398Z,67.28
2022-10-15T06:59:28.480Z,65.60
2022-10-15T07:00:30.978Z,63.63
2022-10-15T07:01:37.227Z,72.60
2022-10-15T07:02:43.576Z,64.72
2022-10-15T07:03:48.573Z,64.85
2022-10-15T07:04:51.603Z,70.50
2022-10-15T07:05:56.013Z,64.53
2022-10-15T07:06:59.147Z,62.53
2022-10-15T07:08:03.498Z,61.45
2022-10-15T07:09:06.617Z,65.07
2022-10-15T07:10:09.279Z,63.35
2022-10-15T07:11:14.833Z,64.03
2022-10-15T07:12:16.884Z,65.97
2022-10-15T07:13:19.963Z,69.13
2022-10-15T07:14:23.448Z,66.53
2022-10-15T07:15:26.537Z,62.45
2022-10-15T07:16:29.843Z,62.38
2022-10-15T07:17:35.201Z,71.35
2022-10-15T07:18:38.206Z,70.40
2022-10-15T07:19:41.465Z,66.07
2022-10-15T07:20:43.553Z,66.30
2022-10-15T07:21:46.725Z,63.03
2022-10-15T07:22:49.181Z,61.28
2022-10-15T07:23:52.263Z,65.93
2022-10-15T07:24:54.342Z,68.80
2022-10-15T07:25:58.531Z,67.13
2022-10-15T07:27:05.123Z,61.17
2022-10-15T07:28:20.223Z,65.05
2022-10-15T07:29:23.699Z,63.63
2022-10-15T07:30:28.494Z,70.00
2022-10-15T07:31:31.115Z,68.38
2022-10-15T07:32:34.527Z,70.30
2022-10-15T07:33:36.855Z,62.97
2022-10-15T07:34:39.873Z,62.15
2022-10-15T07:35:41.950Z,61.13
2022-10-15T07:36:45.041Z,59.88
2022-10-15T07:37:50.687Z,61.13
2022-10-15T07:38:53.831Z,67.10
2022-10-15T07:39:55.909Z,60.28
2022-10-15T07:41:00.221Z,57.42
2022-10-15T07:42:02.819Z,60.90
2022-10-15T07:43:05.912Z,55.50
2022-10-15T07:44:08.139Z,60.58
2022-10-15T07:45:13.096Z,56.40
2022-10-15T07:46:16.368Z,56.92
2022-10-15T07:47:18.672Z,57.03
2022-10-15T07:48:21.970Z,53.90
2022-10-15T07:49:24.119Z,58.53
2022-10-15T07:50:29.315Z,57.63
2022-10-15T07:51:36.926Z,53.55
2022-10-15T07:52:38.962Z,54.70
2022-10-15T07:53:43.936Z,56.97
2022-10-15T07:54:46.982Z,56.00
2022-10-15T07:55:51.743Z,58.20
2022-10-15T07:56:54.761Z,55.50
2022-10-15T07:57:57.270Z,50.60
2022-10-15T07:59:00.318Z,51.60
2022-10-15T08:00:02.400Z,54.78
2022-10-15T08:01:17.968Z,55.03
2022-10-15T08:02:21.907Z,49.75
2022-10-15T08:03:24.532Z,48.95
2022-10-15T08:04:27.690Z,53.17
2022-10-15T08:05:30.130Z,53.72
2022-10-15T08:06:33.833Z,47.40
2022-10-15T08:07:36.017Z,49.00
2022-10-15T08:08:43.956Z,49.15
2022-10-15T08:10:49.293Z,52.05
2022-10-15T08:11:52.318Z,52.95
2022-10-15T08:12:55.851Z,48.50
2022-10-15T08:13:59.024Z,47.45
2022-10-15T08:15:01.425Z,46.22
2022-10-15T08:16:04.933Z,46.95
2022-10-15T08:17:09.709Z,48.97
2022-10-15T08:18:11.873Z,48.42
2022-10-15T08:19:17.761Z,47.10
2022-10-15T08:20:20.970Z,42.38
2022-10-15T08:21:24.316Z,51.83
2022-10-15T08:22:26.606Z,49.03
2022-10-15T08:23:32.242Z,48.80
2022-10-15T08:24:34.458Z,49.85
2022-10-15T08:25:37.491Z,44.75
2022-10-15T08:26:39.573Z,49.83
2022-10-15T08:27:42.673Z,49.10
2022-10-15T08:28:46.122Z,54.15
2022-10-15T08:29:48.403Z,50.67
2022-10-15T08:30:51.537Z,49.17
2022-10-15T08:31:53.590Z,50.90
2022-10-15T08:33:01.139Z,46.38
2022-10-15T08:34:03.693Z,47.33
2022-10-15T08:35:08.223Z,45.55
2022-10-15T08:36:10.606Z,45.72
2022-10-15T08:38:19.746Z,45.35
2022-10-15T08:39:23.392Z,44.75
2022-10-15T08:40:25.591Z,48.80
2022-10-15T08:41:35.000Z,50.00
2022-10-15T08:42:41.141Z,44.88
2022-10-15T08:43:47.154Z,50.20
2022-10-15T08:44:54.878Z,46.35
2022-10-15T08:46:02.019Z,49.65
2022-10-15T08:47:08.674Z,51.40
2022-10-15T08:48:16.959Z,49.65
2022-10-15T08:49:28.655Z,48.05
2022-10-15T08:50:40.166Z,48.75
2022-10-15T08:51:48.409Z,43.72
2022-10-15T08:52:55.551Z,49.50
2022-10-15T08:54:02.716Z,43.78
2022-10-15T08:55:06.355Z,45.42
2022-10-15T08:56:17.139Z,41.95
2022-10-15T08:57:30.430Z,40.88
2022-10-15T08:58:46.372Z,42.22
2022-10-15T08:59:56.681Z,39.78
2022-10-15T09:01:05.072Z,40.25
2022-10-15T09:02:17.626Z,41.15
2022-10-15T09:03:33.553Z,48.92
2022-10-15T09:04:47.169Z,40.05
2022-10-15T09:05:57.896Z,43.13
2022-10-15T09:08:20.633Z,40.20
2022-10-15T09:09:30.678Z,39.92
2022-10-15T09:10:40.847Z,39.58
2022-10-15T09:11:55.278Z,38.10
2022-10-15T09:13:03.323Z,39.90
2022-10-15T09:14:11.040Z,36.58
2022-10-15T09:15:17.139Z,35.42
2022-10-15T09:16:23.871Z,36.60
2022-10-15T09:17:29.970Z,38.08
2022-10-15T09:18:36.983Z,36.17
2022-10-15T09:19:39.217Z,36.55
2022-10-15T09:20:44.665Z,36.03
2022-10-15T09:21:48.221Z,35.35
2022-10-15T09:22:52.867Z,32.90
2022-10-15T09:23:59.568Z,38.88
2022-10-15T09:25:14.478Z,37.38
2022-10-15T09:26:27.043Z,37.83
2022-10-15T09:27:32.958Z,34.90
2022-10-15T09:28:44.706Z,37.88
2022-10-15T09:29:56.489Z,32.28
2022-10-15T09:30:59.786Z,33.33
2022-10-15T09:32:10.877Z,40.03
2022-10-15T09:33:23.748Z,36.60
2022-10-15T09:34:34.094Z,39.22
2022-10-15T09:35:43.279Z,36.10
2022-10-15T09:36:51.822Z,41.17
2022-10-15T09:38:05.831Z,37.92
2022-10-15T09:39:32.832Z,34.28
2022-10-15T09:40:44.454Z,38.78
2022-10-15T09:41:58.613Z,36.13
2022-10-15T09:43:02.432Z,36.65
2022-10-15T09:44:11.183Z,34.10
2022-10-15T09:45:17.271Z,35.20
2022-10-15T09:46:19.327Z,35.83
2022-10-15T09:47:25.970Z,34.15
2022-10-15T09:48:41.335Z,33.53
2022-10-15T09:49:45.799Z,33.58
2022-10-15T09:50:57.882Z,36.78
2022-10-15T09:52:07.617Z,33.28
2022-10-15T09:53:22.222Z,37.70
2022-10-15T09:54:38.283Z,34.78
2022-10-15T09:55:47.849Z,33.35
2022-10-15T09:56:54.450Z,35.38
2022-10-15T09:58:02.988Z,37.17
2022-10-15T09:59:09.664Z,33.33
2022-10-15T10:00:14.777Z,35.78
2022-10-15T10:01:19.891Z,35.60
2022-10-15T10:02:25.192Z,36.50
2022-10-15T10:03:29.478Z,33.92
2022-10-15T10:04:34.008Z,31.27
2022-10-15T10:05:39.012Z,31.38
2022-10-15T10:06:48.618Z,32.10
2022-10-15T10:07:50.787Z,32.60
2022-10-15T10:08:56.880Z,35.72
2022-10-15T10:10:04.804Z,30.15
2022-10-15T10:11:11.136Z,32.30
2022-10-15T10:12:20.597Z,27.92
2022-10-15T10:13:27.332Z,29.50
2022-10-15T10:14:32.994Z,30.63
2022-10-15T10:15:38.419Z,29.75
2022-10-15T10:17:21.577Z,30.48
2022-10-15T10:18:26.074Z,32.95
2022-10-15T10:19:29.233Z,29.25
2022-10-15T10:20:35.125Z,31.58
2022-10-15T10:36:53.438Z,23.52
2022-10-15T10:37:55.397Z,23.15
2022-10-15T10:39:03.089Z,24.92
2022-10-15T10:40:19.680Z,24.10
2022-10-15T10:41:22.684Z,23.38
2022-10-15T10:42:33.164Z,22.55
2022-10-15T10:43:41.272Z,23.10
2022-10-15T10:44:46.493Z,24.17
2022-10-15T10:45:58.052Z,23.70
2022-10-15T10:47:12.902Z,25.33
2022-10-15T10:48:21.191Z,20.25
2022-10-15T10:49:32.773Z,20.92
2022-10-15T10:50:40.617Z,22.30
2022-10-15T10:51:50.225Z,21.85
2022-10-15T10:52:53.238Z,20.60
2022-10-15T10:53:58.646Z,19.10
2022-10-15T10:55:05.225Z,19.15
2022-10-15T10:56:10.570Z,17.13
2022-10-15T10:57:19.755Z,19.65
2022-10-15T10:58:27.028Z,18.23
2022-10-15T10:59:35.640Z,19.05
2022-10-15T11:00:40.966Z,26.75
2022-10-15T11:01:44.025Z,23.08
2022-10-15T11:02:47.200Z,20.13
2022-10-15T11:03:51.405Z,17.48
2022-10-15T11:04:53.524Z,17.70
2022-10-15T11:06:07.864Z,15.75
2022-10-15T11:07:18.999Z,13.15
2022-10-15T11:08:31.874Z,18.65
2022-10-15T11:09:55.259Z,15.35
2022-10-15T11:11:07.636Z,15.90
2022-10-15T11:12:31.815Z,13.70
2022-10-15T11:13:50.202Z,13.88
2022-10-15T11:14:58.816Z,14.48
2022-10-15T11:16:05.369Z,13.07
2022-10-15T11:17:17.877Z,15.50
2022-10-15T11:18:34.755Z,11.65
2022-10-15T11:21:17.628Z,14.00
2022-10-15T11:22:39.889Z,11.35
2022-10-15T11:24:04.885Z,11.18
2022-10-15T11:25:22.083Z,13.80
2022-10-15T11:26:51.981Z,10.15
2022-10-15T11:28:24.784Z,11.23
2022-10-15T11:29:36.370Z,12.82
2022-10-15T11:30:48.937Z,18.25
2022-10-15T11:32:14.672Z,12.02
2022-10-15T11:33:36.689Z,13.50
2022-10-15T11:34:53.633Z,11.52
2022-10-15T11:36:11.729Z,10.80
2022-10-15T11:37:29.238Z,19.15
2022-10-15T11:38:40.916Z,13.02
2022-10-15T11:39:55.200Z,10.82
2022-10-15T11:41:16.603Z,11.90
2022-10-15T11:42:24.968Z,11.80
2022-10-15T11:43:45.057Z,10.25
2022-10-15T11:45:18.149Z,11.85
2022-10-15T11:46:28.147Z,9.82
2022-10-15T11:47:40.979Z,14.30
2022-10-15T11:48:55.286Z,10.73
2022-10-15T11:50:14.461Z,10.95
2022-10-15T11:51:27.615Z,11.85
2022-10-15T11:52:48.732Z,8.63
2022-10-15T11:54:21.693Z,10.48
2022-10-15T11:55:30.163Z,9.23
2022-10-15T11:56:38.828Z,9.00
2022-10-15T11:57:44.435Z,7.90
2022-10-15T11:58:51.508Z,8.10
2022-10-15T11:59:58.404Z,10.88
2022-10-15T12:01:06.742Z,8.63
2022-10-15T12:02:15.001Z,7.55
2022-10-15T12:03:21.309Z,10.88
2022-10-15T12:04:32.715Z,7.95
2022-10-15T12:05:40.075Z,5.50
2022-10-15T12:06:48.753Z,6.63
2022-10-15T12:07:50.652Z,5.40
2022-10-15T12:09:00.229Z,8.85
2022-10-15T12:10:14.105Z,9.27
2022-10-15T12:11:28.250Z,7.28
2022-10-15T12:12:38.920Z,9.00
2022-10-15T12:14:52.247Z,12.07
2022-10-15T12:16:03.597Z,9.30
2022-10-15T12:17:16.671Z,9.43
2022-10-15T12:18:27.268Z,11.13
2022-10-15T12:19:37.288Z,10.45
2022-10-15T12:20:41.765Z,9.00
2022-10-15T12:22:00.920Z,9.77
2022-10-15T12:23:04.713Z,8.75
2022-10-15T12:24:47.708Z,8.50
2022-10-15T12:25:51.963Z,8.57
2022-10-15T12:26:54.007Z,8.98
2022-10-15T12:28:01.651Z,9.38
2022-10-15T12:29:07.030Z,9.20
2022-10-15T12:30:27.543Z,9.77
2022-10-15T12:31:49.268Z,9.32
2022-10-15T12:32:52.048Z,7.93
2022-10-15T12:33:56.581Z,9.10
2022-10-15T12:35:00.891Z,8.40
2022-10-15T12:36:09.844Z,9.93
2022-10-15T12:37:18.215Z,9.43
2022-10-15T12:38:26.523Z,12.13
2022-10-15T12:41:05.338Z,7.35
2022-10-15T12:42:21.879Z,13.05
2022-10-15T12:43:25.186Z,8.50
2022-10-15T12:44:30.428Z,9.35
2022-10-15T12:45:40.004Z,9.57
2022-10-15T12:46:46.287Z,7.70
2022-10-15T12:47:49.371Z,9.30
2022-10-15T12:48:56.094Z,8.20
2022-10-15T12:50:02.786Z,8.30
2022-10-15T12:51:39.407Z,9.82
2022-10-15T12:53:02.438Z,9.02
2022-10-15T12:54:33.633Z,8.35
2022-10-15T12:55:39.043Z,8.85
2022-10-15T12:56:42.393Z,8.93
2022-10-15T12:58:00.069Z,7.85
2022-10-15T12:59:02.127Z,10.70
2022-10-15T13:00:29.716Z,10.02
2022-10-15T13:01:52.115Z,11.48
2022-10-15T13:02:55.978Z,11.95
2022-10-15T13:04:00.440Z,7.97
2022-10-15T13:05:04.460Z,8.75
2022-10-15T13:06:35.083Z,9.45
2022-10-15T13:07:40.853Z,7.38
2022-10-15T13:08:46.334Z,9.38
2022-10-15T13:09:49.503Z,10.65
2022-10-15T13:10:54.906Z,10.13
2022-10-15T13:12:01.438Z,8.23
2022-10-15T13:13:05.704Z,11.95
2022-10-15T13:14:22.164Z,9.38
2022-10-15T13:15:26.401Z,10.80
2022-10-15T13:16:30.575Z,9.40
2022-10-15T13:17:32.729Z,11.40
2022-10-15T13:18:36.269Z,10.07
2022-10-15T13:19:40.978Z,7.82
2022-10-15T13:20:47.586Z,8.35
2022-10-15T13:21:51.943Z,12.07
2022-10-15T13:23:01.915Z,12.52
2022-10-15T13:24:12.465Z,11.85
2022-10-15T13:25:16.445Z,10.95
2022-10-15T13:26:22.645Z,9.98
2022-10-15T13:27:29.025Z,9.65
2022-10-15T13:28:33.704Z,11.15
2022-10-15T13:29:36.690Z,9.40
2022-10-15T13:30:48.590Z,10.20
2022-10-15T13:31:53.220Z,10.18
2022-10-15T13:32:56.821Z,13.07
2022-10-15T13:34:14.389Z,9.55
2022-10-15T13:35:22.032Z,15.48
2022-10-15T13:36:26.506Z,9.02
2022-10-15T13:37:33.408Z,8.73
2022-10-15T13:38:38.741Z,9.35
2022-10-15T13:39:42.546Z,7.45
2022-10-15T13:40:48.524Z,7.97
2022-10-15T13:41:51.544Z,7.22
2022-10-15T13:43:02.298Z,7.38
2022-10-15T13:45:17.911Z,8.25
2022-10-15T13:46:20.904Z,7.82
2022-10-15T13:47:27.053Z,9.98
2022-10-15T13:48:31.120Z,10.38
2022-10-15T13:49:34.063Z,9.57
2022-10-15T13:50:36.693Z,7.30
2022-10-15T13:51:41.949Z,9.15
2022-10-15T13:52:48.113Z,10.07
2022-10-15T13:53:51.374Z,8.95
2022-10-15T13:54:53.347Z,8.80
2022-10-15T13:55:58.296Z,10.13
2022-10-15T13:57:02.541Z,10.55
2022-10-15T13:58:17.453Z,9.45
2022-10-15T13:59:21.413Z,11.07
2022-10-15T14:00:27.002Z,12.75
2022-10-15T14:01:31.739Z,9.25
2022-10-15T14:02:33.700Z,8.35
2022-10-15T14:03:39.268Z,9.38
2022-10-15T14:04:41.333Z,9.60
2022-10-15T14:05:44.841Z,8.68
2022-10-15T14:06:56.992Z,8.75
2022-10-15T14:08:00.283Z,13.98
2022-10-15T14:09:15.035Z,12.23
2022-10-15T14:10:17.104Z,11.52
2022-10-15T14:11:20.637Z,10.40
2022-10-15T14:12:23.604Z,15.00
2022-10-15T14:13:28.947Z,13.00
2022-10-15T14:14:34.738Z,12.15
2022-10-15T14:15:46.219Z,13.90
2022-10-15T14:16:49.559Z,13.35
2022-10-15T14:17:52.083Z,11.65
2022-10-15T14:18:58.467Z,12.40
2022-10-15T14:20:25.818Z,10.57
2022-10-15T14:21:29.135Z,13.65
2022-10-15T14:22:31.688Z,11.52
2022-10-15T14:23:34.684Z,11.32
2022-10-15T14:24:40.194Z,11.48
2022-10-15T14:25:42.229Z,12.43
2022-10-15T14:26:46.309Z,11.60
2022-10-15T14:27:50.484Z,11.73
2022-10-15T14:28:56.500Z,10.43
2022-10-15T14:30:01.419Z,11.73
2022-10-15T14:31:05.334Z,16.48
2022-10-15T14:32:21.858Z,12.32
2022-10-15T14:33:41.691Z,11.85
2022-10-15T14:34:43.694Z,13.93
2022-10-15T14:35:46.669Z,10.88
2022-10-15T14:36:48.592Z,12.05
2022-10-15T14:38:01.138Z,11.63
2022-10-15T14:39:28.145Z,13.30
2022-10-15T14:40:30.511Z,13.32
2022-10-15T14:41:34.537Z,11.68
2022-10-15T14:42:39.591Z,12.30
2022-10-15T14:43:42.496Z,15.65
2022-10-15T14:44:48.061Z,12.30
2022-10-15T14:45:58.721Z,15.85
2022-10-15T14:48:10.750Z,12.48
2022-10-15T14:49:19.991Z,14.60
2022-10-15T14:50:26.630Z,15.50
2022-10-15T14:51:29.036Z,15.02